sensor_id;sensor_type;location;lat;lon;timestamp;temperature;humidity
68109;SHT30;54893;49.864;19.084;2023-02-28T00:03:37;-1.26;84.10
68109;SHT30;54893;49.864;19.084;2023-02-28T00:08:38;-1.25;83.50
68109;SHT30;54893;49.864;19.084;2023-02-28T00:13:42;-1.20;83.22
68109;SHT30;54893;49.864;19.084;2023-02-28T00:18:42;-1.17;83.67
68109;SHT30;54893;49.864;19.084;2023-02-28T00:23:43;-1.20;83.80
68109;SHT30;54893;49.864;19.084;2023-02-28T00:28:44;-1.19;83.49
68109;SHT30;54893;49.864;19.084;2023-02-28T00:33:44;-1.17;83.81
68109;SHT30;54893;49.864;19.084;2023-02-28T00:38:44;-1.19;83.84
68109;SHT30;54893;49.864;19.084;2023-02-28T00:43:45;-1.19;83.68
68109;SHT30;54893;49.864;19.084;2023-02-28T00:48:45;-1.17;83.65
68109;SHT30;54893;49.864;19.084;2023-02-28T00:53:45;-1.17;83.63
68109;SHT30;54893;49.864;19.084;2023-02-28T00:58:46;-1.25;83.90
68109;SHT30;54893;49.864;19.084;2023-02-28T01:03:46;-1.25;83.73
68109;SHT30;54893;49.864;19.084;2023-02-28T01:08:46;-1.33;83.78
68109;SHT30;54893;49.864;19.084;2023-02-28T01:13:47;-1.42;83.85
68109;SHT30;54893;49.864;19.084;2023-02-28T01:18:47;-1.66;84.93
68109;SHT30;54893;49.864;19.084;2023-02-28T01:23:48;-1.73;85.67
68109;SHT30;54893;49.864;19.084;2023-02-28T01:28:50;-1.74;84.63
68109;SHT30;54893;49.864;19.084;2023-02-28T01:33:50;-1.74;85.82
68109;SHT30;54893;49.864;19.084;2023-02-28T01:38:51;-1.71;84.56
68109;SHT30;54893;49.864;19.084;2023-02-28T01:44:06;-1.74;85.56
68109;SHT30;54893;49.864;19.084;2023-02-28T01:49:16;-1.73;85.32
68109;SHT30;54893;49.864;19.084;2023-02-28T01:54:27;-1.74;85.82
68109;SHT30;54893;49.864;19.084;2023-02-28T01:59:56;-1.77;85.68
68109;SHT30;54893;49.864;19.084;2023-02-28T02:05:03;-1.84;85.24
68109;SHT30;54893;49.864;19.084;2023-02-28T02:15:13;-1.87;86.36
68109;SHT30;54893;49.864;19.084;2023-02-28T02:36:46;-1.99;86.30
68109;SHT30;54893;49.864;19.084;2023-02-28T02:41:52;-2.07;86.71
68109;SHT30;54893;49.864;19.084;2023-02-28T02:46:57;-2.25;87.42
68109;SHT30;54893;49.864;19.084;2023-02-28T02:52:05;-2.44;87.76
68109;SHT30;54893;49.864;19.084;2023-02-28T02:57:09;-2.56;88.85
68109;SHT30;54893;49.864;19.084;2023-02-28T03:02:13;-2.80;88.44
68109;SHT30;54893;49.864;19.084;2023-02-28T03:07:15;-2.86;87.61
68109;SHT30;54893;49.864;19.084;2023-02-28T03:12:15;-3.00;87.75
68109;SHT30;54893;49.864;19.084;2023-02-28T03:33:03;-3.40;89.01
68109;SHT30;54893;49.864;19.084;2023-02-28T03:38:22;-3.50;89.40
68109;SHT30;54893;49.864;19.084;2023-02-28T03:43:32;-3.60;91.27
68109;SHT30;54893;49.864;19.084;2023-02-28T03:53:57;-3.62;90.67
68109;SHT30;54893;49.864;19.084;2023-02-28T03:59:00;-3.58;91.59
68109;SHT30;54893;49.864;19.084;2023-02-28T04:04:03;-3.77;92.03
68109;SHT30;54893;49.864;19.084;2023-02-28T04:09:06;-3.89;92.42
68109;SHT30;54893;49.864;19.084;2023-02-28T04:14:08;-3.98;92.37
68109;SHT30;54893;49.864;19.084;2023-02-28T04:19:10;-4.13;93.10
68109;SHT30;54893;49.864;19.084;2023-02-28T04:24:17;-4.25;93.35
68109;SHT30;54893;49.864;19.084;2023-02-28T04:29:21;-4.33;93.73
68109;SHT30;54893;49.864;19.084;2023-02-28T04:34:22;-4.42;94.01
68109;SHT30;54893;49.864;19.084;2023-02-28T04:39:24;-4.46;94.49
68109;SHT30;54893;49.864;19.084;2023-02-28T04:44:24;-4.52;94.85
68109;SHT30;54893;49.864;19.084;2023-02-28T04:49:24;-4.43;93.95
68109;SHT30;54893;49.864;19.084;2023-02-28T04:54:25;-4.49;91.18
68109;SHT30;54893;49.864;19.084;2023-02-28T04:59:25;-4.49;90.72
68109;SHT30;54893;49.864;19.084;2023-02-28T05:04:26;-4.53;91.48
68109;SHT30;54893;49.864;19.084;2023-02-28T05:09:26;-4.66;94.45
68109;SHT30;54893;49.864;19.084;2023-02-28T05:14:27;-4.76;93.00
68109;SHT30;54893;49.864;19.084;2023-02-28T05:19:27;-4.67;94.83
68109;SHT30;54893;49.864;19.084;2023-02-28T05:24:28;-4.81;95.05
68109;SHT30;54893;49.864;19.084;2023-02-28T05:29:28;-4.79;93.92
68109;SHT30;54893;49.864;19.084;2023-02-28T05:34:28;-4.77;94.95
68109;SHT30;54893;49.864;19.084;2023-02-28T05:39:28;-4.70;94.64
68109;SHT30;54893;49.864;19.084;2023-02-28T05:44:29;-4.66;94.71
68109;SHT30;54893;49.864;19.084;2023-02-28T05:49:29;-4.63;94.22
68109;SHT30;54893;49.864;19.084;2023-02-28T05:54:30;-4.56;94.75
68109;SHT30;54893;49.864;19.084;2023-02-28T05:59:30;-4.42;94.80
68109;SHT30;54893;49.864;19.084;2023-02-28T06:04:30;-4.29;95.46
68109;SHT30;54893;49.864;19.084;2023-02-28T06:09:30;-4.03;96.50
68109;SHT30;54893;49.864;19.084;2023-02-28T06:14:32;-4.16;95.50
68109;SHT30;54893;49.864;19.084;2023-02-28T06:19:33;-4.06;93.76
68109;SHT30;54893;49.864;19.084;2023-02-28T06:24:33;-3.94;94.49
68109;SHT30;54893;49.864;19.084;2023-02-28T06:29:34;-3.81;93.80
68109;SHT30;54893;49.864;19.084;2023-02-28T06:34:35;-3.64;90.47
68109;SHT30;54893;49.864;19.084;2023-02-28T06:39:37;-3.47;90.83
68109;SHT30;54893;49.864;19.084;2023-02-28T06:44:38;-3.30;92.67
68109;SHT30;54893;49.864;19.084;2023-02-28T06:49:39;-3.20;90.98
68109;SHT30;54893;49.864;19.084;2023-02-28T06:54:39;-3.01;90.76
68109;SHT30;54893;49.864;19.084;2023-02-28T06:59:39;-2.87;90.28
68109;SHT30;54893;49.864;19.084;2023-02-28T07:04:40;-2.79;91.17
68109;SHT30;54893;49.864;19.084;2023-02-28T07:09:43;-2.52;89.87
68109;SHT30;54893;49.864;19.084;2023-02-28T07:14:43;-2.12;89.49
68109;SHT30;54893;49.864;19.084;2023-02-28T07:19:44;-1.78;88.82
68109;SHT30;54893;49.864;19.084;2023-02-28T07:24:44;-1.23;87.81
68109;SHT30;54893;49.864;19.084;2023-02-28T07:29:44;-0.81;85.52
68109;SHT30;54893;49.864;19.084;2023-02-28T07:34:45;-0.27;84.15
68109;SHT30;54893;49.864;19.084;2023-02-28T07:39:45;0.31;82.74
68109;SHT30;54893;49.864;19.084;2023-02-28T07:44:46;0.57;80.31
68109;SHT30;54893;49.864;19.084;2023-02-28T07:49:46;0.44;78.57
68109;SHT30;54893;49.864;19.084;2023-02-28T07:54:46;0.24;78.58
68109;SHT30;54893;49.864;19.084;2023-02-28T07:59:47;0.72;79.84
68109;SHT30;54893;49.864;19.084;2023-02-28T08:04:47;1.32;77.50
68109;SHT30;54893;49.864;19.084;2023-02-28T08:09:48;2.14;74.19
68109;SHT30;54893;49.864;19.084;2023-02-28T08:14:48;2.50;74.13
68109;SHT30;54893;49.864;19.084;2023-02-28T08:19:49;1.70;71.42
68109;SHT30;54893;49.864;19.084;2023-02-28T08:24:49;2.60;73.22
68109;SHT30;54893;49.864;19.084;2023-02-28T08:29:49;2.88;71.32
68109;SHT30;54893;49.864;19.084;2023-02-28T08:34:50;2.75;71.36
68109;SHT30;54893;49.864;19.084;2023-02-28T08:39:50;2.52;69.57
68109;SHT30;54893;49.864;19.084;2023-02-28T08:44:51;2.65;70.69
68109;SHT30;54893;49.864;19.084;2023-02-28T08:49:51;2.99;68.19
68109;SHT30;54893;49.864;19.084;2023-02-28T08:54:52;3.35;69.16
68109;SHT30;54893;49.864;19.084;2023-02-28T08:59:52;3.42;67.76
68109;SHT30;54893;49.864;19.084;2023-02-28T09:04:53;3.15;67.82
68109;SHT30;54893;49.864;19.084;2023-02-28T09:09:53;2.85;64.85
68109;SHT30;54893;49.864;19.084;2023-02-28T09:14:54;2.52;65.36
68109;SHT30;54893;49.864;19.084;2023-02-28T09:19:54;3.09;65.20
68109;SHT30;54893;49.864;19.084;2023-02-28T09:24:55;3.12;65.72
68109;SHT30;54893;49.864;19.084;2023-02-28T09:29:55;2.66;63.53
68109;SHT30;54893;49.864;19.084;2023-02-28T09:34:56;2.96;66.78
68109;SHT30;54893;49.864;19.084;2023-02-28T09:39:56;3.01;65.00
68109;SHT30;54893;49.864;19.084;2023-02-28T09:44:58;3.08;63.95
68109;SHT30;54893;49.864;19.084;2023-02-28T09:55:32;2.55;64.56
68109;SHT30;54893;49.864;19.084;2023-02-28T10:00:37;3.19;65.80
68109;SHT30;54893;49.864;19.084;2023-02-28T10:11:07;3.32;65.97
68109;SHT30;54893;49.864;19.084;2023-02-28T10:16:14;3.42;64.44
68109;SHT30;54893;49.864;19.084;2023-02-28T10:21:26;3.13;65.07
68109;SHT30;54893;49.864;19.084;2023-02-28T10:26:30;2.96;65.83
68109;SHT30;54893;49.864;19.084;2023-02-28T10:31:31;3.43;65.96
68109;SHT30;54893;49.864;19.084;2023-02-28T10:36:32;3.04;66.57
68109;SHT30;54893;49.864;19.084;2023-02-28T10:41:32;3.02;65.70
68109;SHT30;54893;49.864;19.084;2023-02-28T10:46:36;3.01;64.78
68109;SHT30;54893;49.864;19.084;2023-02-28T10:51:40;3.30;66.32
68109;SHT30;54893;49.864;19.084;2023-02-28T10:56:41;2.66;65.43
68109;SHT30;54893;49.864;19.084;2023-02-28T11:01:46;2.65;65.92
68109;SHT30;54893;49.864;19.084;2023-02-28T11:07:00;2.66;66.88
68109;SHT30;54893;49.864;19.084;2023-02-28T11:12:02;2.60;67.09
68109;SHT30;54893;49.864;19.084;2023-02-28T11:17:20;3.06;65.77
68109;SHT30;54893;49.864;19.084;2023-02-28T11:22:27;2.98;65.65
68109;SHT30;54893;49.864;19.084;2023-02-28T11:32:31;2.94;67.38
68109;SHT30;54893;49.864;19.084;2023-02-28T11:37:32;3.25;67.09
68109;SHT30;54893;49.864;19.084;2023-02-28T11:48:20;3.46;66.78
68109;SHT30;54893;49.864;19.084;2023-02-28T12:20:36;3.13;67.48
68109;SHT30;54893;49.864;19.084;2023-02-28T12:26:00;3.59;66.07
68109;SHT30;54893;49.864;19.084;2023-02-28T12:31:12;3.58;64.89
68109;SHT30;54893;49.864;19.084;2023-02-28T12:36:18;3.06;67.23
68109;SHT30;54893;49.864;19.084;2023-02-28T12:41:34;3.49;64.80
68109;SHT30;54893;49.864;19.084;2023-02-28T12:46:47;3.01;65.12
68109;SHT30;54893;49.864;19.084;2023-02-28T12:51:49;3.28;65.84
68109;SHT30;54893;49.864;19.084;2023-02-28T13:12:23;3.74;66.84
68109;SHT30;54893;49.864;19.084;2023-02-28T13:17:24;3.69;63.44
68109;SHT30;54893;49.864;19.084;2023-02-28T13:22:48;3.70;66.51
68109;SHT30;54893;49.864;19.084;2023-02-28T13:27:50;3.80;64.49
68109;SHT30;54893;49.864;19.084;2023-02-28T13:33:34;3.20;65.17
68109;SHT30;54893;49.864;19.084;2023-02-28T13:38:37;3.30;66.38
68109;SHT30;54893;49.864;19.084;2023-02-28T13:44:04;3.43;66.19
68109;SHT30;54893;49.864;19.084;2023-02-28T14:05:38;2.89;65.91
68109;SHT30;54893;49.864;19.084;2023-02-28T14:10:43;3.22;66.25
68109;SHT30;54893;49.864;19.084;2023-02-28T14:15:49;3.22;65.89
68109;SHT30;54893;49.864;19.084;2023-02-28T14:21:00;3.29;66.19
68109;SHT30;54893;49.864;19.084;2023-02-28T14:31:29;3.04;67.05
68109;SHT30;54893;49.864;19.084;2023-02-28T14:36:35;3.01;67.55
68109;SHT30;54893;49.864;19.084;2023-02-28T14:41:38;3.06;67.30
68109;SHT30;54893;49.864;19.084;2023-02-28T14:46:41;2.81;67.14
68109;SHT30;54893;49.864;19.084;2023-02-28T14:51:41;2.75;67.07
68109;SHT30;54893;49.864;19.084;2023-02-28T14:56:42;2.65;67.72
68109;SHT30;54893;49.864;19.084;2023-02-28T15:01:43;2.60;67.40
68109;SHT30;54893;49.864;19.084;2023-02-28T15:06:43;2.50;68.86
68109;SHT30;54893;49.864;19.084;2023-02-28T15:11:48;2.48;68.86
68109;SHT30;54893;49.864;19.084;2023-02-28T15:16:56;2.10;69.62
68109;SHT30;54893;49.864;19.084;2023-02-28T15:22:02;2.16;69.14
68109;SHT30;54893;49.864;19.084;2023-02-28T15:27:07;3.26;68.80
68109;SHT30;54893;49.864;19.084;2023-02-28T15:32:21;5.18;63.35
68109;SHT30;54893;49.864;19.084;2023-02-28T15:42:32;2.27;70.60
68109;SHT30;54893;49.864;19.084;2023-02-28T15:47:33;1.66;69.58
68109;SHT30;54893;49.864;19.084;2023-02-28T15:52:38;1.46;70.21
68109;SHT30;54893;49.864;19.084;2023-02-28T15:57:40;1.21;71.81
68109;SHT30;54893;49.864;19.084;2023-02-28T16:02:41;1.02;71.91
68109;SHT30;54893;49.864;19.084;2023-02-28T16:07:43;0.65;73.62
68109;SHT30;54893;49.864;19.084;2023-02-28T16:12:43;0.61;73.10
68109;SHT30;54893;49.864;19.084;2023-02-28T16:17:44;0.39;74.02
68109;SHT30;54893;49.864;19.084;2023-02-28T16:22:46;0.17;74.00
68109;SHT30;54893;49.864;19.084;2023-02-28T16:27:48;0.10;74.12
68109;SHT30;54893;49.864;19.084;2023-02-28T16:32:51;0.02;74.04
68109;SHT30;54893;49.864;19.084;2023-02-28T16:37:52;-0.07;74.20
68109;SHT30;54893;49.864;19.084;2023-02-28T16:42:55;-0.21;75.60
68109;SHT30;54893;49.864;19.084;2023-02-28T16:47:57;-0.41;76.47
68109;SHT30;54893;49.864;19.084;2023-02-28T16:52:58;-0.45;75.59
68109;SHT30;54893;49.864;19.084;2023-02-28T16:58:00;-0.41;76.27
68109;SHT30;54893;49.864;19.084;2023-02-28T17:03:01;-0.49;76.11
68109;SHT30;54893;49.864;19.084;2023-02-28T17:08:02;-0.72;77.61
68109;SHT30;54893;49.864;19.084;2023-02-28T17:13:03;-0.78;78.29
68109;SHT30;54893;49.864;19.084;2023-02-28T17:18:04;-0.75;77.27
68109;SHT30;54893;49.864;19.084;2023-02-28T17:23:04;-0.73;76.11
68109;SHT30;54893;49.864;19.084;2023-02-28T17:28:04;-0.83;78.81
68109;SHT30;54893;49.864;19.084;2023-02-28T17:33:05;-0.93;77.92
68109;SHT30;54893;49.864;19.084;2023-02-28T17:38:15;-1.00;79.17
68109;SHT30;54893;49.864;19.084;2023-02-28T17:43:15;-1.03;78.01
68109;SHT30;54893;49.864;19.084;2023-02-28T17:48:16;-1.19;80.17
68109;SHT30;54893;49.864;19.084;2023-02-28T17:53:17;-1.23;78.89
68109;SHT30;54893;49.864;19.084;2023-02-28T17:58:17;-1.17;77.63
68109;SHT30;54893;49.864;19.084;2023-02-28T18:03:18;-1.25;79.14
68109;SHT30;54893;49.864;19.084;2023-02-28T18:08:19;-1.36;79.72
68109;SHT30;54893;49.864;19.084;2023-02-28T18:13:20;-1.40;79.56
68109;SHT30;54893;49.864;19.084;2023-02-28T18:18:20;-1.47;80.11
68109;SHT30;54893;49.864;19.084;2023-02-28T18:23:20;-1.57;81.20
68109;SHT30;54893;49.864;19.084;2023-02-28T18:28:21;-1.57;80.89
68109;SHT30;54893;49.864;19.084;2023-02-28T18:33:21;-1.60;80.89
68109;SHT30;54893;49.864;19.084;2023-02-28T18:38:21;-1.61;81.23
68109;SHT30;54893;49.864;19.084;2023-02-28T18:43:22;-1.59;81.89
68109;SHT30;54893;49.864;19.084;2023-02-28T18:48:23;-1.67;82.54
68109;SHT30;54893;49.864;19.084;2023-02-28T18:53:23;-1.68;81.07
68109;SHT30;54893;49.864;19.084;2023-02-28T18:58:24;-1.66;80.78
68109;SHT30;54893;49.864;19.084;2023-02-28T19:03:24;-1.73;81.82
68109;SHT30;54893;49.864;19.084;2023-02-28T19:08:25;-1.73;84.34
68109;SHT30;54893;49.864;19.084;2023-02-28T19:13:26;-1.87;83.47
68109;SHT30;54893;49.864;19.084;2023-02-28T19:18:26;-1.88;81.62
68109;SHT30;54893;49.864;19.084;2023-02-28T19:23:27;-1.87;81.55
68109;SHT30;54893;49.864;19.084;2023-02-28T19:28:30;-1.93;82.51
68109;SHT30;54893;49.864;19.084;2023-02-28T19:33:30;-1.97;82.61
68109;SHT30;54893;49.864;19.084;2023-02-28T19:38:31;-2.09;83.54
68109;SHT30;54893;49.864;19.084;2023-02-28T19:43:31;-2.28;84.56
68109;SHT30;54893;49.864;19.084;2023-02-28T19:48:31;-2.45;85.48
68109;SHT30;54893;49.864;19.084;2023-02-28T19:53:33;-2.52;85.48
68109;SHT30;54893;49.864;19.084;2023-02-28T19:58:34;-2.48;83.26
68109;SHT30;54893;49.864;19.084;2023-02-28T20:03:35;-2.56;85.50
68109;SHT30;54893;49.864;19.084;2023-02-28T20:08:36;-2.69;86.11
68109;SHT30;54893;49.864;19.084;2023-02-28T20:13:37;-2.69;85.65
68109;SHT30;54893;49.864;19.084;2023-02-28T20:18:38;-2.85;86.65
68109;SHT30;54893;49.864;19.084;2023-02-28T20:23:40;-2.89;87.11
68109;SHT30;54893;49.864;19.084;2023-02-28T20:28:41;-2.90;86.32
68109;SHT30;54893;49.864;19.084;2023-02-28T20:33:42;-2.83;85.94
68109;SHT30;54893;49.864;19.084;2023-02-28T20:38:43;-2.95;86.28
68109;SHT30;54893;49.864;19.084;2023-02-28T20:43:44;-2.96;85.67
68109;SHT30;54893;49.864;19.084;2023-02-28T20:48:45;-2.87;87.03
68109;SHT30;54893;49.864;19.084;2023-02-28T20:53:45;-2.89;85.48
68109;SHT30;54893;49.864;19.084;2023-02-28T20:58:47;-2.93;85.19
68109;SHT30;54893;49.864;19.084;2023-02-28T21:03:49;-2.79;84.33
68109;SHT30;54893;49.864;19.084;2023-02-28T21:08:50;-2.86;85.61
68109;SHT30;54893;49.864;19.084;2023-02-28T21:13:51;-2.97;85.45
68109;SHT30;54893;49.864;19.084;2023-02-28T21:18:52;-2.86;84.99
68109;SHT30;54893;49.864;19.084;2023-02-28T21:23:53;-2.92;85.76
68109;SHT30;54893;49.864;19.084;2023-02-28T21:28:56;-3.18;86.89
68109;SHT30;54893;49.864;19.084;2023-02-28T21:33:57;-3.06;82.76
68109;SHT30;54893;49.864;19.084;2023-02-28T21:39:01;-2.92;87.27
68109;SHT30;54893;49.864;19.084;2023-02-28T21:44:02;-3.06;86.51
68109;SHT30;54893;49.864;19.084;2023-02-28T21:49:02;-3.03;82.48
68109;SHT30;54893;49.864;19.084;2023-02-28T21:54:03;-2.96;83.86
68109;SHT30;54893;49.864;19.084;2023-02-28T21:59:03;-3.28;86.30
68109;SHT30;54893;49.864;19.084;2023-02-28T22:04:07;-3.41;87.66
68109;SHT30;54893;49.864;19.084;2023-02-28T22:09:09;-3.55;88.46
68109;SHT30;54893;49.864;19.084;2023-02-28T22:14:09;-3.79;88.74
68109;SHT30;54893;49.864;19.084;2023-02-28T22:19:10;-3.88;90.22
68109;SHT30;54893;49.864;19.084;2023-02-28T22:24:11;-3.79;92.79
68109;SHT30;54893;49.864;19.084;2023-02-28T22:29:11;-3.81;92.40
68109;SHT30;54893;49.864;19.084;2023-02-28T22:34:12;-3.96;93.38
68109;SHT30;54893;49.864;19.084;2023-02-28T22:39:12;-4.06;92.13
68109;SHT30;54893;49.864;19.084;2023-02-28T22:44:12;-3.91;89.30
68109;SHT30;54893;49.864;19.084;2023-02-28T22:49:13;-3.89;88.61
68109;SHT30;54893;49.864;19.084;2023-02-28T22:54:13;-3.94;90.08
68109;SHT30;54893;49.864;19.084;2023-02-28T22:59:14;-4.18;91.49
68109;SHT30;54893;49.864;19.084;2023-02-28T23:04:14;-4.26;92.30
68109;SHT30;54893;49.864;19.084;2023-02-28T23:09:16;-4.34;92.26
68109;SHT30;54893;49.864;19.084;2023-02-28T23:14:18;-4.49;93.84
68109;SHT30;54893;49.864;19.084;2023-02-28T23:19:22;-4.53;94.02
68109;SHT30;54893;49.864;19.084;2023-02-28T23:24:24;-4.49;93.58
68109;SHT30;54893;49.864;19.084;2023-02-28T23:29:26;-4.53;94.25
68109;SHT30;54893;49.864;19.084;2023-02-28T23:34:26;-4.66;94.70
68109;SHT30;54893;49.864;19.084;2023-02-28T23:39:30;-4.77;94.98
68109;SHT30;54893;49.864;19.084;2023-02-28T23:44:30;-4.74;93.27
68109;SHT30;54893;49.864;19.084;2023-02-28T23:49:31;-4.74;92.93
68109;SHT30;54893;49.864;19.084;2023-02-28T23:54:31;-4.70;94.15
68109;SHT30;54893;49.864;19.084;2023-02-28T23:59:33;-4.67;94.52
